sensor_id;sensor_type;location;lat;lon;timestamp;temperature;humidity
44271;DHT22;29963;44.594;11.368;2023-09-30T00:00:26;19.50;99.90
44271;DHT22;29963;44.594;11.368;2023-09-30T00:02:52;19.40;99.90
44271;DHT22;29963;44.594;11.368;2023-09-30T00:05:17;19.40;99.90
44271;DHT22;29963;44.594;11.368;2023-09-30T00:07:45;19.40;99.90
44271;DHT22;29963;44.594;11.368;2023-09-30T00:10:11;19.50;99.90
44271;DHT22;29963;44.594;11.368;2023-09-30T00:12:37;19.40;99.90
44271;DHT22;29963;44.594;11.368;2023-09-30T00:15:03;19.40;99.90
44271;DHT22;29963;44.594;11.368;2023-09-30T00:17:29;19.40;99.90
44271;DHT22;29963;44.594;11.368;2023-09-30T00:19:55;19.40;99.90
44271;DHT22;29963;44.594;11.368;2023-09-30T00:22:21;19.20;99.90
44271;DHT22;29963;44.594;11.368;2023-09-30T00:24:47;19.10;99.90
44271;DHT22;29963;44.594;11.368;2023-09-30T00:27:12;19.00;99.90
44271;DHT22;29963;44.594;11.368;2023-09-30T00:29:38;19.00;99.90
44271;DHT22;29963;44.594;11.368;2023-09-30T00:32:04;19.00;99.90
44271;DHT22;29963;44.594;11.368;2023-09-30T00:34:35;18.90;99.90
44271;DHT22;29963;44.594;11.368;2023-09-30T00:37:01;18.80;99.90
44271;DHT22;29963;44.594;11.368;2023-09-30T00:39:27;18.80;99.90
44271;DHT22;29963;44.594;11.368;2023-09-30T00:41:59;18.80;99.90
44271;DHT22;29963;44.594;11.368;2023-09-30T00:44:26;18.80;99.90
44271;DHT22;29963;44.594;11.368;2023-09-30T00:46:52;18.80;99.90
44271;DHT22;29963;44.594;11.368;2023-09-30T00:49:18;18.70;99.90
44271;DHT22;29963;44.594;11.368;2023-09-30T00:51:46;18.70;99.90
44271;DHT22;29963;44.594;11.368;2023-09-30T00:54:12;18.70;99.90
44271;DHT22;29963;44.594;11.368;2023-09-30T00:56:45;18.70;99.90
44271;DHT22;29963;44.594;11.368;2023-09-30T00:59:15;18.70;99.90
44271;DHT22;29963;44.594;11.368;2023-09-30T01:01:42;18.80;99.90
44271;DHT22;29963;44.594;11.368;2023-09-30T01:04:10;18.70;99.90
44271;DHT22;29963;44.594;11.368;2023-09-30T01:06:36;18.70;99.90
44271;DHT22;29963;44.594;11.368;2023-09-30T01:09:02;18.70;99.90
44271;DHT22;29963;44.594;11.368;2023-09-30T01:11:28;18.60;99.90
44271;DHT22;29963;44.594;11.368;2023-09-30T01:13:54;18.50;99.90
44271;DHT22;29963;44.594;11.368;2023-09-30T01:16:21;18.50;99.90
44271;DHT22;29963;44.594;11.368;2023-09-30T01:18:47;18.50;99.90
44271;DHT22;29963;44.594;11.368;2023-09-30T01:21:12;18.50;99.90
44271;DHT22;29963;44.594;11.368;2023-09-30T01:23:38;18.50;99.90
44271;DHT22;29963;44.594;11.368;2023-09-30T01:26:09;18.50;99.90
44271;DHT22;29963;44.594;11.368;2023-09-30T01:28:35;18.50;99.90
44271;DHT22;29963;44.594;11.368;2023-09-30T01:31:01;18.50;99.90
44271;DHT22;29963;44.594;11.368;2023-09-30T01:33:27;18.50;99.90
44271;DHT22;29963;44.594;11.368;2023-09-30T01:35:54;18.60;99.90
44271;DHT22;29963;44.594;11.368;2023-09-30T01:38:20;18.60;99.90
44271;DHT22;29963;44.594;11.368;2023-09-30T01:40:46;18.70;99.90
44271;DHT22;29963;44.594;11.368;2023-09-30T01:43:13;18.70;99.90
44271;DHT22;29963;44.594;11.368;2023-09-30T01:45:39;18.60;99.90
44271;DHT22;29963;44.594;11.368;2023-09-30T01:48:05;18.60;99.90
44271;DHT22;29963;44.594;11.368;2023-09-30T01:50:31;18.50;99.90
44271;DHT22;29963;44.594;11.368;2023-09-30T01:52:57;18.50;99.90
44271;DHT22;29963;44.594;11.368;2023-09-30T01:55:22;18.50;99.90
44271;DHT22;29963;44.594;11.368;2023-09-30T01:57:48;18.50;99.90
44271;DHT22;29963;44.594;11.368;2023-09-30T02:00:14;18.50;99.90
44271;DHT22;29963;44.594;11.368;2023-09-30T02:02:39;18.50;99.90
44271;DHT22;29963;44.594;11.368;2023-09-30T02:05:05;18.40;99.90
44271;DHT22;29963;44.594;11.368;2023-09-30T02:07:34;18.30;99.90
44271;DHT22;29963;44.594;11.368;2023-09-30T02:10:00;18.10;99.90
44271;DHT22;29963;44.594;11.368;2023-09-30T02:12:27;18.00;99.90
44271;DHT22;29963;44.594;11.368;2023-09-30T02:14:53;18.00;99.90
44271;DHT22;29963;44.594;11.368;2023-09-30T02:17:19;17.90;99.90
44271;DHT22;29963;44.594;11.368;2023-09-30T02:19:45;18.10;99.90
44271;DHT22;29963;44.594;11.368;2023-09-30T02:22:11;18.20;99.90
44271;DHT22;29963;44.594;11.368;2023-09-30T02:24:37;18.40;99.90
44271;DHT22;29963;44.594;11.368;2023-09-30T02:27:05;18.40;99.90
44271;DHT22;29963;44.594;11.368;2023-09-30T02:29:31;18.60;99.90
44271;DHT22;29963;44.594;11.368;2023-09-30T02:31:57;18.70;99.90
44271;DHT22;29963;44.594;11.368;2023-09-30T02:34:23;18.80;99.90
44271;DHT22;29963;44.594;11.368;2023-09-30T02:36:49;18.90;99.90
44271;DHT22;29963;44.594;11.368;2023-09-30T02:39:15;18.80;99.90
44271;DHT22;29963;44.594;11.368;2023-09-30T02:41:42;18.80;99.90
44271;DHT22;29963;44.594;11.368;2023-09-30T02:44:08;18.60;99.90
44271;DHT22;29963;44.594;11.368;2023-09-30T02:46:34;18.50;99.90
44271;DHT22;29963;44.594;11.368;2023-09-30T02:49:01;18.40;99.90
44271;DHT22;29963;44.594;11.368;2023-09-30T02:51:27;18.30;99.90
44271;DHT22;29963;44.594;11.368;2023-09-30T02:53:53;18.30;99.90
44271;DHT22;29963;44.594;11.368;2023-09-30T02:56:19;18.30;99.90
44271;DHT22;29963;44.594;11.368;2023-09-30T02:58:46;18.30;99.90
44271;DHT22;29963;44.594;11.368;2023-09-30T03:01:15;18.40;99.90
44271;DHT22;29963;44.594;11.368;2023-09-30T03:03:44;18.40;99.90
44271;DHT22;29963;44.594;11.368;2023-09-30T03:06:10;18.30;99.90
44271;DHT22;29963;44.594;11.368;2023-09-30T03:08:36;18.30;99.90
44271;DHT22;29963;44.594;11.368;2023-09-30T03:11:02;18.30;99.90
44271;DHT22;29963;44.594;11.368;2023-09-30T03:13:28;18.30;99.90
44271;DHT22;29963;44.594;11.368;2023-09-30T03:15:53;18.30;99.90
44271;DHT22;29963;44.594;11.368;2023-09-30T03:18:19;18.20;99.90
44271;DHT22;29963;44.594;11.368;2023-09-30T03:20:52;18.10;99.90
44271;DHT22;29963;44.594;11.368;2023-09-30T03:23:22;18.00;99.90
44271;DHT22;29963;44.594;11.368;2023-09-30T03:25:48;18.00;99.90
44271;DHT22;29963;44.594;11.368;2023-09-30T03:28:13;17.90;99.90
44271;DHT22;29963;44.594;11.368;2023-09-30T03:30:40;17.90;99.90
44271;DHT22;29963;44.594;11.368;2023-09-30T03:33:06;17.90;99.90
44271;DHT22;29963;44.594;11.368;2023-09-30T03:35:31;17.90;99.90
44271;DHT22;29963;44.594;11.368;2023-09-30T03:37:57;17.90;99.90
44271;DHT22;29963;44.594;11.368;2023-09-30T03:40:23;17.80;99.90
44271;DHT22;29963;44.594;11.368;2023-09-30T03:42:54;17.80;99.90
44271;DHT22;29963;44.594;11.368;2023-09-30T03:45:20;17.80;99.90
44271;DHT22;29963;44.594;11.368;2023-09-30T03:47:46;17.70;99.90
44271;DHT22;29963;44.594;11.368;2023-09-30T03:50:13;17.70;99.90
44271;DHT22;29963;44.594;11.368;2023-09-30T03:52:41;17.60;99.90
44271;DHT22;29963;44.594;11.368;2023-09-30T03:55:10;17.50;99.90
44271;DHT22;29963;44.594;11.368;2023-09-30T03:57:37;17.40;99.90
44271;DHT22;29963;44.594;11.368;2023-09-30T04:00:04;17.40;99.90
44271;DHT22;29963;44.594;11.368;2023-09-30T04:02:33;17.30;99.90
44271;DHT22;29963;44.594;11.368;2023-09-30T04:05:00;17.30;99.90
44271;DHT22;29963;44.594;11.368;2023-09-30T04:07:29;17.30;99.90
44271;DHT22;29963;44.594;11.368;2023-09-30T04:09:55;17.30;99.90
44271;DHT22;29963;44.594;11.368;2023-09-30T04:12:21;17.30;99.90
44271;DHT22;29963;44.594;11.368;2023-09-30T04:14:49;17.40;99.90
44271;DHT22;29963;44.594;11.368;2023-09-30T04:17:14;17.40;99.90
44271;DHT22;29963;44.594;11.368;2023-09-30T04:19:40;17.40;99.90
44271;DHT22;29963;44.594;11.368;2023-09-30T04:22:06;17.30;99.90
44271;DHT22;29963;44.594;11.368;2023-09-30T04:24:31;17.20;99.90
44271;DHT22;29963;44.594;11.368;2023-09-30T04:26:57;17.20;99.90
44271;DHT22;29963;44.594;11.368;2023-09-30T04:29:28;17.20;99.90
44271;DHT22;29963;44.594;11.368;2023-09-30T04:31:57;17.30;99.90
44271;DHT22;29963;44.594;11.368;2023-09-30T04:34:24;17.30;99.90
44271;DHT22;29963;44.594;11.368;2023-09-30T04:36:49;17.20;99.90
44271;DHT22;29963;44.594;11.368;2023-09-30T04:39:15;17.20;99.90
44271;DHT22;29963;44.594;11.368;2023-09-30T04:41:41;17.20;99.90
44271;DHT22;29963;44.594;11.368;2023-09-30T04:44:09;17.30;99.90
44271;DHT22;29963;44.594;11.368;2023-09-30T04:46:36;17.30;99.90
44271;DHT22;29963;44.594;11.368;2023-09-30T04:49:07;17.30;99.90
44271;DHT22;29963;44.594;11.368;2023-09-30T04:51:33;17.30;99.90
44271;DHT22;29963;44.594;11.368;2023-09-30T04:53:59;17.30;99.90
44271;DHT22;29963;44.594;11.368;2023-09-30T04:56:25;17.20;99.90
44271;DHT22;29963;44.594;11.368;2023-09-30T04:58:51;17.20;99.90
44271;DHT22;29963;44.594;11.368;2023-09-30T05:01:17;17.20;99.90
44271;DHT22;29963;44.594;11.368;2023-09-30T05:03:47;17.20;99.90
44271;DHT22;29963;44.594;11.368;2023-09-30T05:06:16;17.20;99.90
44271;DHT22;29963;44.594;11.368;2023-09-30T05:08:42;17.20;99.90
44271;DHT22;29963;44.594;11.368;2023-09-30T05:11:08;17.10;99.90
44271;DHT22;29963;44.594;11.368;2023-09-30T05:13:33;17.10;99.90
44271;DHT22;29963;44.594;11.368;2023-09-30T05:16:02;17.10;99.90
44271;DHT22;29963;44.594;11.368;2023-09-30T05:18:29;17.20;99.90
44271;DHT22;29963;44.594;11.368;2023-09-30T05:20:55;17.20;99.90
44271;DHT22;29963;44.594;11.368;2023-09-30T05:23:21;17.20;99.90
44271;DHT22;29963;44.594;11.368;2023-09-30T05:25:47;17.20;99.90
44271;DHT22;29963;44.594;11.368;2023-09-30T05:28:13;17.20;99.90
44271;DHT22;29963;44.594;11.368;2023-09-30T05:30:39;17.30;99.90
44271;DHT22;29963;44.594;11.368;2023-09-30T05:33:06;17.40;99.90
44271;DHT22;29963;44.594;11.368;2023-09-30T05:35:32;17.40;99.90
44271;DHT22;29963;44.594;11.368;2023-09-30T05:37:58;17.40;99.90
44271;DHT22;29963;44.594;11.368;2023-09-30T05:40:24;17.40;99.90
44271;DHT22;29963;44.594;11.368;2023-09-30T05:42:53;17.40;99.90
44271;DHT22;29963;44.594;11.368;2023-09-30T05:45:19;17.40;99.90
44271;DHT22;29963;44.594;11.368;2023-09-30T05:47:45;17.40;99.90
44271;DHT22;29963;44.594;11.368;2023-09-30T05:50:11;17.40;99.90
44271;DHT22;29963;44.594;11.368;2023-09-30T05:52:42;17.50;99.90
44271;DHT22;29963;44.594;11.368;2023-09-30T05:55:08;17.50;99.90
44271;DHT22;29963;44.594;11.368;2023-09-30T05:57:34;17.50;99.90
44271;DHT22;29963;44.594;11.368;2023-09-30T06:00:01;17.50;99.90
44271;DHT22;29963;44.594;11.368;2023-09-30T06:02:27;17.50;99.90
44271;DHT22;29963;44.594;11.368;2023-09-30T06:04:54;17.60;99.90
44271;DHT22;29963;44.594;11.368;2023-09-30T06:07:22;17.70;99.90
44271;DHT22;29963;44.594;11.368;2023-09-30T06:09:48;17.70;99.90
44271;DHT22;29963;44.594;11.368;2023-09-30T06:12:15;17.70;99.90
44271;DHT22;29963;44.594;11.368;2023-09-30T06:14:40;17.60;99.90
44271;DHT22;29963;44.594;11.368;2023-09-30T06:17:07;17.60;99.90
44271;DHT22;29963;44.594;11.368;2023-09-30T06:19:32;17.60;99.90
44271;DHT22;29963;44.594;11.368;2023-09-30T06:21:59;17.60;99.90
44271;DHT22;29963;44.594;11.368;2023-09-30T06:24:24;17.70;99.90
44271;DHT22;29963;44.594;11.368;2023-09-30T06:26:50;17.70;99.90
44271;DHT22;29963;44.594;11.368;2023-09-30T06:29:16;17.70;99.90
44271;DHT22;29963;44.594;11.368;2023-09-30T06:31:42;17.70;99.90
44271;DHT22;29963;44.594;11.368;2023-09-30T06:34:08;17.80;99.90
44271;DHT22;29963;44.594;11.368;2023-09-30T06:36:36;17.80;99.90
44271;DHT22;29963;44.594;11.368;2023-09-30T06:39:03;17.80;99.90
44271;DHT22;29963;44.594;11.368;2023-09-30T06:41:31;17.80;99.90
44271;DHT22;29963;44.594;11.368;2023-09-30T06:43:57;17.90;99.90
44271;DHT22;29963;44.594;11.368;2023-09-30T06:46:23;17.90;99.90
44271;DHT22;29963;44.594;11.368;2023-09-30T06:48:49;18.10;99.90
44271;DHT22;29963;44.594;11.368;2023-09-30T06:51:17;18.20;99.90
44271;DHT22;29963;44.594;11.368;2023-09-30T06:53:44;18.30;99.90
44271;DHT22;29963;44.594;11.368;2023-09-30T06:56:11;18.40;99.90
44271;DHT22;29963;44.594;11.368;2023-09-30T06:58:38;18.40;99.90
44271;DHT22;29963;44.594;11.368;2023-09-30T07:01:04;18.60;99.90
44271;DHT22;29963;44.594;11.368;2023-09-30T07:03:29;18.70;99.90
44271;DHT22;29963;44.594;11.368;2023-09-30T07:05:56;18.70;99.90
44271;DHT22;29963;44.594;11.368;2023-09-30T07:08:22;18.90;99.90
44271;DHT22;29963;44.594;11.368;2023-09-30T07:10:48;18.90;99.90
44271;DHT22;29963;44.594;11.368;2023-09-30T07:13:18;19.00;99.90
44271;DHT22;29963;44.594;11.368;2023-09-30T07:15:44;19.10;99.90
44271;DHT22;29963;44.594;11.368;2023-09-30T07:18:09;19.20;99.90
44271;DHT22;29963;44.594;11.368;2023-09-30T07:20:35;19.30;99.90
44271;DHT22;29963;44.594;11.368;2023-09-30T07:23:01;19.40;99.90
44271;DHT22;29963;44.594;11.368;2023-09-30T07:25:27;19.40;99.90
44271;DHT22;29963;44.594;11.368;2023-09-30T07:27:53;19.50;99.90
44271;DHT22;29963;44.594;11.368;2023-09-30T07:30:19;19.70;99.90
44271;DHT22;29963;44.594;11.368;2023-09-30T07:32:45;19.80;99.90
44271;DHT22;29963;44.594;11.368;2023-09-30T07:35:12;19.90;99.90
44271;DHT22;29963;44.594;11.368;2023-09-30T07:37:41;19.90;99.90
44271;DHT22;29963;44.594;11.368;2023-09-30T07:40:08;20.00;99.90
44271;DHT22;29963;44.594;11.368;2023-09-30T07:42:33;20.10;99.90
44271;DHT22;29963;44.594;11.368;2023-09-30T07:45:00;20.20;99.90
44271;DHT22;29963;44.594;11.368;2023-09-30T07:47:26;20.30;99.90
44271;DHT22;29963;44.594;11.368;2023-09-30T07:49:52;20.40;99.90
44271;DHT22;29963;44.594;11.368;2023-09-30T07:52:18;20.40;99.90
44271;DHT22;29963;44.594;11.368;2023-09-30T07:54:44;20.50;99.90
44271;DHT22;29963;44.594;11.368;2023-09-30T07:57:09;20.70;99.90
44271;DHT22;29963;44.594;11.368;2023-09-30T07:59:35;20.80;99.90
44271;DHT22;29963;44.594;11.368;2023-09-30T08:02:01;20.90;99.90
44271;DHT22;29963;44.594;11.368;2023-09-30T08:04:30;21.00;99.90
44271;DHT22;29963;44.594;11.368;2023-09-30T08:06:56;21.10;99.90
44271;DHT22;29963;44.594;11.368;2023-09-30T08:09:22;21.30;99.90
44271;DHT22;29963;44.594;11.368;2023-09-30T08:11:50;21.30;99.90
44271;DHT22;29963;44.594;11.368;2023-09-30T08:14:16;21.40;99.90
44271;DHT22;29963;44.594;11.368;2023-09-30T08:16:41;21.50;99.90
44271;DHT22;29963;44.594;11.368;2023-09-30T08:19:08;21.50;99.90
44271;DHT22;29963;44.594;11.368;2023-09-30T08:21:34;21.50;99.90
44271;DHT22;29963;44.594;11.368;2023-09-30T08:24:01;21.60;99.90
44271;DHT22;29963;44.594;11.368;2023-09-30T08:26:27;21.50;99.90
44271;DHT22;29963;44.594;11.368;2023-09-30T08:28:53;21.50;99.90
44271;DHT22;29963;44.594;11.368;2023-09-30T08:31:19;21.60;99.90
44271;DHT22;29963;44.594;11.368;2023-09-30T08:33:45;21.70;99.90
44271;DHT22;29963;44.594;11.368;2023-09-30T08:36:11;21.80;99.90
44271;DHT22;29963;44.594;11.368;2023-09-30T08:38:38;21.80;99.90
44271;DHT22;29963;44.594;11.368;2023-09-30T08:41:04;21.90;99.90
44271;DHT22;29963;44.594;11.368;2023-09-30T08:43:31;21.90;99.90
44271;DHT22;29963;44.594;11.368;2023-09-30T08:46:00;22.00;99.90
44271;DHT22;29963;44.594;11.368;2023-09-30T08:48:28;22.10;99.90
44271;DHT22;29963;44.594;11.368;2023-09-30T08:50:56;22.20;99.90
44271;DHT22;29963;44.594;11.368;2023-09-30T08:53:23;22.30;99.90
44271;DHT22;29963;44.594;11.368;2023-09-30T08:55:52;22.40;99.90
44271;DHT22;29963;44.594;11.368;2023-09-30T08:58:19;22.40;99.90
44271;DHT22;29963;44.594;11.368;2023-09-30T09:00:45;22.40;99.90
44271;DHT22;29963;44.594;11.368;2023-09-30T09:03:11;22.50;99.90
44271;DHT22;29963;44.594;11.368;2023-09-30T09:05:37;22.70;99.90
44271;DHT22;29963;44.594;11.368;2023-09-30T09:08:02;22.70;99.90
44271;DHT22;29963;44.594;11.368;2023-09-30T09:10:28;22.80;99.90
44271;DHT22;29963;44.594;11.368;2023-09-30T09:12:58;22.90;99.90
44271;DHT22;29963;44.594;11.368;2023-09-30T09:15:26;23.00;99.90
44271;DHT22;29963;44.594;11.368;2023-09-30T09:17:52;23.10;99.90
44271;DHT22;29963;44.594;11.368;2023-09-30T09:20:20;23.20;99.90
44271;DHT22;29963;44.594;11.368;2023-09-30T09:22:51;23.30;99.90
44271;DHT22;29963;44.594;11.368;2023-09-30T09:25:19;23.40;99.90
44271;DHT22;29963;44.594;11.368;2023-09-30T09:27:47;23.40;99.90
44271;DHT22;29963;44.594;11.368;2023-09-30T09:30:20;23.50;99.90
44271;DHT22;29963;44.594;11.368;2023-09-30T09:33:05;23.50;99.90
44271;DHT22;29963;44.594;11.368;2023-09-30T09:35:33;23.60;99.90
44271;DHT22;29963;44.594;11.368;2023-09-30T09:38:03;23.70;99.90
44271;DHT22;29963;44.594;11.368;2023-09-30T09:40:37;23.80;99.90
44271;DHT22;29963;44.594;11.368;2023-09-30T09:43:06;23.90;99.90
44271;DHT22;29963;44.594;11.368;2023-09-30T09:45:36;23.90;99.90
44271;DHT22;29963;44.594;11.368;2023-09-30T09:48:06;23.90;99.90
44271;DHT22;29963;44.594;11.368;2023-09-30T09:50:32;24.00;99.90
44271;DHT22;29963;44.594;11.368;2023-09-30T09:52:59;24.10;99.90
44271;DHT22;29963;44.594;11.368;2023-09-30T09:55:26;24.10;99.90
44271;DHT22;29963;44.594;11.368;2023-09-30T09:57:53;24.20;99.90
44271;DHT22;29963;44.594;11.368;2023-09-30T10:00:24;24.20;99.90
44271;DHT22;29963;44.594;11.368;2023-09-30T10:02:51;24.30;99.90
44271;DHT22;29963;44.594;11.368;2023-09-30T10:05:18;24.30;99.90
44271;DHT22;29963;44.594;11.368;2023-09-30T10:10:17;24.40;99.90
44271;DHT22;29963;44.594;11.368;2023-09-30T10:12:43;24.40;99.90
44271;DHT22;29963;44.594;11.368;2023-09-30T10:18:10;24.50;99.90
44271;DHT22;29963;44.594;11.368;2023-09-30T10:20:38;24.50;99.90
44271;DHT22;29963;44.594;11.368;2023-09-30T10:23:28;24.60;99.90
44271;DHT22;29963;44.594;11.368;2023-09-30T10:28:42;24.80;99.90
44271;DHT22;29963;44.594;11.368;2023-09-30T10:36:36;24.70;99.90
44271;DHT22;29963;44.594;11.368;2023-09-30T10:39:04;24.70;99.90
44271;DHT22;29963;44.594;11.368;2023-09-30T10:46:54;24.90;99.90
44271;DHT22;29963;44.594;11.368;2023-09-30T10:51:52;25.00;99.90
44271;DHT22;29963;44.594;11.368;2023-09-30T10:54:25;25.00;99.90
44271;DHT22;29963;44.594;11.368;2023-09-30T10:56:51;25.10;99.90
44271;DHT22;29963;44.594;11.368;2023-09-30T10:59:22;25.20;99.90
44271;DHT22;29963;44.594;11.368;2023-09-30T11:01:49;25.30;99.90
44271;DHT22;29963;44.594;11.368;2023-09-30T11:04:15;25.30;99.90
44271;DHT22;29963;44.594;11.368;2023-09-30T11:06:42;25.40;99.90
44271;DHT22;29963;44.594;11.368;2023-09-30T11:09:09;25.60;99.90
44271;DHT22;29963;44.594;11.368;2023-09-30T11:11:48;25.60;99.80
44271;DHT22;29963;44.594;11.368;2023-09-30T11:14:25;25.70;99.60
44271;DHT22;29963;44.594;11.368;2023-09-30T11:16:52;25.70;98.80
44271;DHT22;29963;44.594;11.368;2023-09-30T11:19:19;25.70;98.70
44271;DHT22;29963;44.594;11.368;2023-09-30T11:21:54;25.70;98.10
44271;DHT22;29963;44.594;11.368;2023-09-30T11:24:24;25.80;98.70
44271;DHT22;29963;44.594;11.368;2023-09-30T11:26:53;25.80;98.10
44271;DHT22;29963;44.594;11.368;2023-09-30T11:29:18;25.80;97.60
44271;DHT22;29963;44.594;11.368;2023-09-30T11:31:47;25.90;97.80
44271;DHT22;29963;44.594;11.368;2023-09-30T11:34:15;25.90;97.80
44271;DHT22;29963;44.594;11.368;2023-09-30T11:36:48;26.00;98.50
44271;DHT22;29963;44.594;11.368;2023-09-30T11:39:26;26.10;98.40
44271;DHT22;29963;44.594;11.368;2023-09-30T11:41:52;26.30;97.90
44271;DHT22;29963;44.594;11.368;2023-09-30T11:44:18;26.40;97.30
44271;DHT22;29963;44.594;11.368;2023-09-30T11:46:51;26.50;96.90
44271;DHT22;29963;44.594;11.368;2023-09-30T11:51:58;26.60;96.50
44271;DHT22;29963;44.594;11.368;2023-09-30T11:54:32;26.60;96.30
44271;DHT22;29963;44.594;11.368;2023-09-30T11:56:59;26.70;95.40
44271;DHT22;29963;44.594;11.368;2023-09-30T11:59:25;26.70;95.20
44271;DHT22;29963;44.594;11.368;2023-09-30T12:01:51;26.70;94.70
44271;DHT22;29963;44.594;11.368;2023-09-30T12:04:20;26.60;94.10
44271;DHT22;29963;44.594;11.368;2023-09-30T12:06:46;26.60;94.40
44271;DHT22;29963;44.594;11.368;2023-09-30T12:09:15;26.50;94.70
44271;DHT22;29963;44.594;11.368;2023-09-30T12:11:53;26.60;94.50
44271;DHT22;29963;44.594;11.368;2023-09-30T12:14:20;26.60;93.80
44271;DHT22;29963;44.594;11.368;2023-09-30T12:16:46;26.50;93.80
44271;DHT22;29963;44.594;11.368;2023-09-30T12:19:14;26.50;94.00
44271;DHT22;29963;44.594;11.368;2023-09-30T12:21:41;26.50;94.10
44271;DHT22;29963;44.594;11.368;2023-09-30T12:24:08;26.50;94.20
44271;DHT22;29963;44.594;11.368;2023-09-30T12:26:35;26.60;93.80
44271;DHT22;29963;44.594;11.368;2023-09-30T12:29:02;26.60;94.10
44271;DHT22;29963;44.594;11.368;2023-09-30T12:31:28;26.70;94.80
44271;DHT22;29963;44.594;11.368;2023-09-30T12:33:54;26.70;94.20
44271;DHT22;29963;44.594;11.368;2023-09-30T12:36:23;26.80;94.40
44271;DHT22;29963;44.594;11.368;2023-09-30T12:38:49;26.90;94.00
44271;DHT22;29963;44.594;11.368;2023-09-30T12:41:14;27.10;93.40
44271;DHT22;29963;44.594;11.368;2023-09-30T12:43:41;27.10;93.80
44271;DHT22;29963;44.594;11.368;2023-09-30T12:46:08;27.20;93.70
44271;DHT22;29963;44.594;11.368;2023-09-30T12:48:34;27.30;93.20
44271;DHT22;29963;44.594;11.368;2023-09-30T12:51:00;27.40;92.40
44271;DHT22;29963;44.594;11.368;2023-09-30T12:53:25;27.50;92.40
44271;DHT22;29963;44.594;11.368;2023-09-30T12:55:51;27.60;92.30
44271;DHT22;29963;44.594;11.368;2023-09-30T12:58:17;27.80;92.10
44271;DHT22;29963;44.594;11.368;2023-09-30T13:00:43;27.90;91.60
44271;DHT22;29963;44.594;11.368;2023-09-30T13:03:09;28.00;91.30
44271;DHT22;29963;44.594;11.368;2023-09-30T13:05:35;28.10;90.10
44271;DHT22;29963;44.594;11.368;2023-09-30T13:08:00;28.30;88.60
44271;DHT22;29963;44.594;11.368;2023-09-30T13:10:27;28.40;88.40
44271;DHT22;29963;44.594;11.368;2023-09-30T13:12:52;28.50;88.20
44271;DHT22;29963;44.594;11.368;2023-09-30T13:15:19;28.60;85.50
44271;DHT22;29963;44.594;11.368;2023-09-30T13:17:45;28.60;85.20
44271;DHT22;29963;44.594;11.368;2023-09-30T13:20:11;28.70;86.40
44271;DHT22;29963;44.594;11.368;2023-09-30T13:22:38;28.80;86.90
44271;DHT22;29963;44.594;11.368;2023-09-30T13:25:07;29.00;85.60
44271;DHT22;29963;44.594;11.368;2023-09-30T13:27:38;29.00;85.50
44271;DHT22;29963;44.594;11.368;2023-09-30T13:30:06;29.10;84.90
44271;DHT22;29963;44.594;11.368;2023-09-30T13:32:33;29.20;85.10
44271;DHT22;29963;44.594;11.368;2023-09-30T13:35:04;29.30;84.70
44271;DHT22;29963;44.594;11.368;2023-09-30T13:37:33;29.50;82.80
44271;DHT22;29963;44.594;11.368;2023-09-30T13:40:00;29.60;79.10
44271;DHT22;29963;44.594;11.368;2023-09-30T13:42:27;29.60;77.40
44271;DHT22;29963;44.594;11.368;2023-09-30T13:44:53;29.50;79.90
44271;DHT22;29963;44.594;11.368;2023-09-30T13:47:18;29.60;81.00
44271;DHT22;29963;44.594;11.368;2023-09-30T13:49:44;29.70;79.00
44271;DHT22;29963;44.594;11.368;2023-09-30T13:52:10;29.70;80.00
44271;DHT22;29963;44.594;11.368;2023-09-30T13:54:35;29.90;81.00
44271;DHT22;29963;44.594;11.368;2023-09-30T13:57:01;30.10;80.10
44271;DHT22;29963;44.594;11.368;2023-09-30T13:59:26;30.10;75.10
44271;DHT22;29963;44.594;11.368;2023-09-30T14:01:53;30.20;76.10
44271;DHT22;29963;44.594;11.368;2023-09-30T14:04:18;30.40;75.90
44271;DHT22;29963;44.594;11.368;2023-09-30T14:06:44;30.50;76.20
44271;DHT22;29963;44.594;11.368;2023-09-30T14:09:10;30.60;75.10
44271;DHT22;29963;44.594;11.368;2023-09-30T14:11:41;30.70;75.00
44271;DHT22;29963;44.594;11.368;2023-09-30T14:14:07;30.90;75.10
44271;DHT22;29963;44.594;11.368;2023-09-30T14:16:35;31.00;75.10
44271;DHT22;29963;44.594;11.368;2023-09-30T14:19:01;31.20;73.70
44271;DHT22;29963;44.594;11.368;2023-09-30T14:21:27;31.30;73.80
44271;DHT22;29963;44.594;11.368;2023-09-30T14:23:54;31.50;70.70
44271;DHT22;29963;44.594;11.368;2023-09-30T14:26:19;31.60;70.90
44271;DHT22;29963;44.594;11.368;2023-09-30T14:28:45;31.90;71.90
44271;DHT22;29963;44.594;11.368;2023-09-30T14:31:10;32.60;70.60
44271;DHT22;29963;44.594;11.368;2023-09-30T14:33:36;33.70;69.30
44271;DHT22;29963;44.594;11.368;2023-09-30T14:36:03;35.10;63.60
44271;DHT22;29963;44.594;11.368;2023-09-30T14:38:31;36.30;61.20
44271;DHT22;29963;44.594;11.368;2023-09-30T14:40:57;37.30;58.40
44271;DHT22;29963;44.594;11.368;2023-09-30T14:43:22;38.10;56.30
44271;DHT22;29963;44.594;11.368;2023-09-30T14:45:48;38.60;55.20
44271;DHT22;29963;44.594;11.368;2023-09-30T14:48:14;38.70;54.40
44271;DHT22;29963;44.594;11.368;2023-09-30T14:50:50;38.70;54.10
44271;DHT22;29963;44.594;11.368;2023-09-30T14:53:16;38.80;53.90
44271;DHT22;29963;44.594;11.368;2023-09-30T14:55:42;38.80;53.40
44271;DHT22;29963;44.594;11.368;2023-09-30T14:58:08;38.60;52.60
44271;DHT22;29963;44.594;11.368;2023-09-30T15:00:33;38.30;53.20
44271;DHT22;29963;44.594;11.368;2023-09-30T15:02:59;38.00;53.10
44271;DHT22;29963;44.594;11.368;2023-09-30T15:05:25;37.50;52.20
44271;DHT22;29963;44.594;11.368;2023-09-30T15:07:51;37.10;53.80
44271;DHT22;29963;44.594;11.368;2023-09-30T15:10:16;37.00;54.60
44271;DHT22;29963;44.594;11.368;2023-09-30T15:12:42;36.80;53.10
44271;DHT22;29963;44.594;11.368;2023-09-30T15:15:08;36.80;54.00
44271;DHT22;29963;44.594;11.368;2023-09-30T15:17:34;36.70;54.70
44271;DHT22;29963;44.594;11.368;2023-09-30T15:20:00;36.40;53.60
44271;DHT22;29963;44.594;11.368;2023-09-30T15:22:26;36.10;54.70
44271;DHT22;29963;44.594;11.368;2023-09-30T15:24:52;35.80;55.50
44271;DHT22;29963;44.594;11.368;2023-09-30T15:27:18;35.60;56.00
44271;DHT22;29963;44.594;11.368;2023-09-30T15:29:44;35.40;55.80
44271;DHT22;29963;44.594;11.368;2023-09-30T15:32:10;35.30;56.10
44271;DHT22;29963;44.594;11.368;2023-09-30T15:34:36;35.20;56.40
44271;DHT22;29963;44.594;11.368;2023-09-30T15:37:06;35.00;56.50